Jasper, NY (14855)

11:06 PM EST on December 19, 2014 (GMT -0500)
Academy Corners, Deerfield Township, PA | Change Station
CLOSE
Current Station
Personal Weather Station
Location: Knoxville, PA
Elevation: 1224 ft
Nearby Weather Stations

Elev 1224 ft 41.95 °N, 77.43 °W | Updated 1 minute ago

Overcast
Overcast
27.5 °F
Feels Like 28 °F
N
0.0
Wind Variable Wind from West
Gusts 3.0 mph

Today
High -- | Low -- °F
--% Chance of Precip.
Yesterday
High -- | Low -- °F
Precip. -- in
7:34 AM 4:40 PM
Waning Crescent, 5% visible
Pressure 30.29 in
Visibility 10.0 miles
Clouds Overcast 1100 ft
Windchill 28 °F
Dew Point 22 °F
Humidity 79%
Rainfall 0.00 in
Snow Depth Not available.
UV 0.0 out of 12
Pollen .10 out of 12
Air Quality Not available.
Flu Activity Not available.
METAR KELZ 200356Z AUTO 27007KT 10SM OVC011 M05/M08 A3019 RMK AO2 SLP255 T10501078

More Conditions Fewer Conditions

Pressure 30.29 in
Visibility 10.0 miles
Clouds Overcast 1100 ft
Windchill 28 °F
Dew Point 22 °F
Humidity 79%
Rainfall 0.00 in
Snow Depth Not available.
UV 0.0 out of 12
Pollen .10 out of 12
Air Quality Not available.
Flu Activity Not available.
METAR KELZ 200356Z AUTO 27007KT 10SM OVC011 M05/M08 A3019 RMK AO2 SLP255 T10501078

More Conditions Fewer Conditions

10-Day Weather Forecast

Almanac

Astronomy

Dec. 19, 2014 Rise Set
Actual Time
Civil Twilight
Nautical Twilight
Astronomical Twilight
Moon
Length of Visible Light
Length of Day
Tomorrow will be .
, % of the Moon is Illuminated

Today's Extremes

State Highs State Lows

Community

WunderPhotos

Upload Photos

1,779,127 photos uploaded!

WunderBlogs® & News

Nearby

Air Quality

  Air Quality AQ Index Pollutant
Not available.

Snow Depth

Station Depth Elevation

Earthquake Activity

City Distance Mag. Time & Date
Minimum magnitude displayed is 2.5.

Coastal Water Temperatures

Place Temperature

Nearby Weather Stations